createdAt,value
2023-03-04T00:00:17.082Z,41.67
2023-03-04T00:02:46.471Z,42.33
2023-03-04T00:05:13.195Z,46.50
2023-03-04T00:07:42.160Z,55.80
2023-03-04T00:10:14.344Z,64.27
2023-03-04T00:12:46.027Z,50.40
2023-03-04T00:15:17.308Z,66.07
2023-03-04T00:17:46.167Z,53.37
2023-03-04T00:20:16.590Z,53.80
2023-03-04T00:22:43.282Z,53.73
2023-03-04T00:25:12.452Z,52.07
2023-03-04T00:27:41.329Z,58.47
2023-03-04T00:30:09.685Z,56.63
2023-03-04T00:32:52.731Z,61.10
2023-03-04T00:35:19.614Z,59.90
2023-03-04T00:37:46.289Z,58.27
2023-03-04T00:40:16.965Z,64.00
2023-03-04T00:42:45.887Z,66.77
2023-03-04T00:45:15.252Z,54.93
2023-03-04T00:47:44.130Z,64.30
2023-03-04T00:50:11.322Z,57.33
2023-03-04T00:52:38.187Z,54.17
2023-03-04T00:55:05.867Z,53.97
2023-03-04T00:57:34.752Z,62.17
2023-03-04T01:00:01.455Z,61.10
2023-03-04T01:02:30.734Z,62.70
2023-03-04T01:04:57.377Z,60.03
2023-03-04T01:07:24.063Z,54.20
2023-03-04T01:09:55.329Z,56.77
2023-03-04T01:12:24.657Z,59.70
2023-03-04T01:14:51.353Z,57.30
2023-03-04T01:17:20.255Z,57.60
2023-03-04T01:19:51.841Z,58.70
2023-03-04T01:22:19.150Z,52.07
2023-03-04T01:24:50.046Z,55.03
2023-03-04T01:27:19.064Z,58.33
2023-03-04T01:29:48.285Z,53.20
2023-03-04T01:32:17.618Z,55.87
2023-03-04T01:34:46.552Z,57.67
2023-03-04T01:37:16.484Z,52.23
2023-03-04T01:39:43.195Z,54.57
2023-03-04T01:42:21.144Z,56.83
2023-03-04T01:44:51.269Z,56.57
2023-03-04T01:47:19.373Z,61.80
2023-03-04T01:49:51.093Z,61.37
2023-03-04T01:52:20.603Z,63.13
2023-03-04T01:54:48.933Z,56.77
2023-03-04T01:57:20.506Z,56.70
2023-03-04T02:00:10.659Z,54.17
2023-03-04T02:02:43.573Z,53.97
2023-03-04T02:05:13.852Z,54.43
2023-03-04T02:07:45.222Z,48.90
2023-03-04T02:10:13.012Z,51.83
2023-03-04T02:12:40.560Z,61.80
2023-03-04T02:15:09.916Z,54.20
2023-03-04T02:17:38.988Z,48.70
2023-03-04T02:20:48.021Z,47.20
2023-03-04T02:23:35.655Z,47.97
2023-03-04T02:26:11.350Z,59.90
2023-03-04T02:28:40.852Z,49.80
2023-03-04T02:31:21.815Z,48.83
2023-03-04T02:33:49.136Z,49.70
2023-03-04T02:36:18.100Z,51.80
2023-03-04T02:38:44.899Z,51.87
2023-03-04T02:41:18.479Z,49.30
2023-03-04T02:43:48.894Z,53.17
2023-03-04T02:46:15.611Z,46.43
2023-03-04T02:48:44.553Z,47.03
2023-03-04T02:51:11.603Z,49.57
2023-03-04T02:53:39.075Z,47.97
2023-03-04T02:56:06.267Z,52.00
2023-03-04T02:58:36.418Z,50.03
2023-03-04T03:01:08.195Z,46.60
2023-03-04T03:03:37.338Z,46.80
2023-03-04T03:06:04.367Z,46.13
2023-03-04T03:08:33.666Z,40.63
2023-03-04T03:11:02.295Z,42.83
2023-03-04T03:13:35.357Z,39.10
2023-03-04T03:16:04.175Z,38.40
2023-03-04T03:18:35.866Z,41.47
2023-03-04T03:21:06.978Z,36.97
2023-03-04T03:23:34.845Z,35.70
2023-03-04T03:26:01.798Z,39.57
2023-03-04T03:28:30.720Z,36.10
2023-03-04T03:30:59.467Z,45.70
2023-03-04T03:33:26.405Z,45.50
2023-03-04T03:35:56.433Z,35.27
2023-03-04T03:38:28.218Z,40.33
2023-03-04T03:40:56.500Z,37.73
2023-03-04T03:43:24.516Z,40.80
2023-03-04T03:45:57.078Z,38.20
2023-03-04T03:48:27.655Z,43.43
2023-03-04T03:50:55.531Z,38.97
2023-03-04T03:53:23.356Z,42.73
2023-03-04T03:55:53.004Z,41.00
2023-03-04T03:58:20.874Z,43.50
2023-03-04T04:00:48.651Z,46.10
2023-03-04T04:03:17.525Z,46.43
2023-03-04T04:05:45.351Z,44.07
2023-03-04T04:08:24.892Z,40.80
2023-03-04T04:10:56.280Z,49.47
2023-03-04T04:13:23.908Z,45.17
2023-03-04T04:15:54.741Z,35.00
2023-03-04T04:18:22.508Z,41.90
2023-03-04T04:20:52.216Z,40.17
2023-03-04T04:23:23.059Z,36.07
2023-03-04T04:25:50.849Z,39.60
2023-03-04T04:28:18.480Z,35.10
2023-03-04T04:30:48.351Z,43.00
2023-03-04T04:33:16.160Z,35.83
2023-03-04T04:35:48.219Z,46.27
2023-03-04T04:38:30.629Z,41.90
2023-03-04T04:41:01.469Z,34.43
2023-03-04T04:43:28.719Z,38.97
2023-03-04T04:45:57.956Z,41.80
2023-03-04T04:48:25.374Z,41.47
2023-03-04T04:50:56.818Z,31.07
2023-03-04T04:53:27.145Z,45.47
2023-03-04T04:55:57.595Z,31.90
2023-03-04T04:58:25.141Z,35.43
2023-03-04T05:00:52.591Z,32.10
2023-03-04T05:03:22.096Z,31.20
2023-03-04T05:05:50.779Z,38.67
2023-03-04T05:08:18.446Z,35.37
2023-03-04T05:10:48.568Z,37.37
2023-03-04T05:13:16.227Z,39.97
2023-03-04T05:15:43.837Z,44.00
2023-03-04T05:18:20.053Z,42.87
2023-03-04T05:20:54.884Z,44.10
2023-03-04T05:23:27.771Z,46.03
2023-03-04T05:25:55.328Z,43.10
2023-03-04T05:28:22.775Z,45.20
2023-03-04T05:30:50.698Z,41.97
2023-03-04T05:33:23.638Z,53.53
2023-03-04T05:35:51.326Z,45.50
2023-03-04T05:38:29.111Z,50.13
2023-03-04T05:41:03.732Z,42.40
2023-03-04T05:43:38.669Z,45.60
2023-03-04T05:46:06.231Z,48.07
2023-03-04T05:48:37.056Z,48.33
2023-03-04T05:51:15.873Z,41.53
2023-03-04T05:53:46.619Z,40.90
2023-03-04T05:56:19.830Z,47.17
2023-03-04T05:58:50.552Z,43.17
2023-03-04T06:01:23.732Z,38.43
2023-03-04T06:03:51.548Z,47.27
2023-03-04T06:06:22.432Z,44.80
2023-03-04T06:08:55.523Z,41.17
2023-03-04T06:11:23.186Z,37.67
2023-03-04T06:13:51.162Z,42.50
2023-03-04T06:16:23.172Z,48.37
2023-03-04T06:18:52.724Z,41.53
2023-03-04T06:21:24.001Z,49.60
2023-03-04T06:23:56.440Z,45.93
2023-03-04T06:26:24.619Z,41.80
2023-03-04T06:28:55.634Z,41.30
2023-03-04T06:31:23.899Z,48.13
2023-03-04T06:33:53.432Z,36.10
2023-03-04T06:36:21.203Z,35.97
2023-03-04T06:38:48.964Z,43.00
2023-03-04T06:41:16.524Z,40.17
2023-03-04T06:43:44.086Z,38.43
2023-03-04T06:46:11.537Z,46.33
2023-03-04T06:48:39.616Z,42.57
2023-03-04T06:51:13.313Z,40.53
2023-03-04T06:53:42.205Z,38.87
2023-03-04T06:56:18.366Z,38.27
2023-03-04T06:58:46.735Z,40.50
2023-03-04T07:01:17.030Z,38.90
2023-03-04T07:03:48.161Z,38.07
2023-03-04T07:06:17.110Z,42.83
2023-03-04T07:08:46.710Z,39.20
2023-03-04T07:11:14.383Z,43.90
2023-03-04T07:13:43.569Z,41.00
2023-03-04T07:16:15.919Z,40.27
2023-03-04T07:18:47.850Z,46.60
2023-03-04T07:21:15.936Z,38.73
2023-03-04T07:23:42.982Z,49.67
2023-03-04T07:26:09.663Z,48.67
2023-03-04T07:28:46.775Z,37.10
2023-03-04T07:31:17.174Z,39.27
2023-03-04T07:33:43.850Z,34.37
2023-03-04T07:36:11.332Z,30.17
2023-03-04T07:38:47.358Z,32.60
2023-03-04T07:41:16.894Z,32.90
2023-03-04T07:43:46.094Z,32.07
2023-03-04T07:46:15.790Z,32.40
2023-03-04T07:48:47.701Z,46.40
2023-03-04T07:51:22.346Z,37.53
2023-03-04T07:53:59.445Z,38.30
2023-03-04T07:56:32.117Z,34.97
2023-03-04T07:59:01.796Z,34.33
2023-03-04T08:01:35.034Z,32.20
2023-03-04T08:04:02.748Z,33.80
2023-03-04T08:06:29.698Z,39.73
2023-03-04T08:09:07.024Z,33.07
2023-03-04T08:11:36.227Z,32.50
2023-03-04T08:14:02.905Z,37.07
2023-03-04T08:16:32.177Z,40.07
2023-03-04T08:19:07.793Z,37.70
2023-03-04T08:21:39.359Z,33.30
2023-03-04T08:24:14.084Z,35.93
2023-03-04T08:26:47.993Z,32.97
2023-03-04T08:29:23.152Z,32.53
2023-03-04T08:31:51.993Z,32.77
2023-03-04T08:34:23.127Z,47.23
2023-03-04T08:36:49.839Z,33.00
2023-03-04T08:39:21.313Z,34.00
2023-03-04T08:41:49.016Z,30.63
2023-03-04T08:44:16.531Z,32.50
2023-03-04T08:46:43.884Z,30.30
2023-03-04T08:49:15.976Z,29.00
2023-03-04T08:51:45.381Z,28.80
2023-03-04T08:54:14.502Z,27.80
2023-03-04T08:56:43.932Z,34.33
2023-03-04T08:59:10.636Z,33.10
2023-03-04T09:01:37.468Z,27.43
2023-03-04T09:04:06.690Z,33.87
2023-03-04T09:06:35.857Z,31.23
2023-03-04T09:09:03.406Z,29.43
2023-03-04T09:11:32.676Z,33.93
2023-03-04T09:14:01.923Z,30.13
2023-03-04T09:16:28.667Z,30.77
2023-03-04T09:18:59.957Z,32.97
2023-03-04T09:21:28.652Z,35.10
2023-03-04T09:23:58.132Z,31.40
2023-03-04T09:26:33.083Z,30.03
2023-03-04T09:29:03.082Z,37.87
2023-03-04T09:31:33.067Z,29.00
2023-03-04T09:34:02.501Z,33.60
2023-03-04T09:36:31.581Z,27.73
2023-03-04T09:39:04.959Z,29.90
2023-03-04T09:41:40.074Z,31.90
2023-03-04T09:44:19.431Z,27.00
2023-03-04T09:46:51.036Z,29.57
2023-03-04T09:49:25.734Z,28.30
2023-03-04T09:52:10.618Z,30.07
2023-03-04T09:54:48.524Z,29.63
2023-03-04T09:57:21.247Z,28.13
2023-03-04T10:00:05.881Z,30.23
2023-03-04T10:02:43.396Z,28.40
2023-03-04T10:05:17.306Z,31.00
2023-03-04T10:07:52.237Z,30.80
2023-03-04T10:10:33.336Z,35.13
2023-03-04T10:13:04.439Z,32.10
2023-03-04T10:15:37.914Z,35.10
2023-03-04T10:18:20.633Z,40.97
2023-03-04T10:20:52.376Z,36.43
2023-03-04T10:23:24.416Z,38.97
2023-03-04T10:25:54.402Z,30.13
2023-03-04T10:28:29.222Z,29.80
2023-03-04T10:31:04.258Z,26.80
2023-03-04T10:33:38.171Z,29.47
2023-03-04T10:36:25.870Z,28.57
2023-03-04T10:39:06.846Z,27.27
2023-03-04T10:41:34.085Z,30.03
2023-03-04T10:44:16.491Z,28.87
2023-03-04T10:46:47.839Z,29.90
2023-03-04T10:49:22.238Z,27.20
2023-03-04T10:51:53.393Z,26.30
2023-03-04T10:54:26.121Z,26.10
2023-03-04T10:56:59.860Z,33.07
2023-03-04T10:59:35.493Z,27.00
2023-03-04T11:02:17.233Z,31.07
2023-03-04T11:04:53.640Z,27.57
2023-03-04T11:07:29.364Z,31.53
2023-03-04T11:09:58.312Z,28.77
2023-03-04T11:12:34.049Z,28.87
2023-03-04T11:15:20.589Z,30.77
2023-03-04T11:17:55.950Z,27.20
2023-03-04T11:20:28.920Z,30.20
2023-03-04T11:23:04.860Z,30.57
2023-03-04T11:25:44.262Z,34.60
2023-03-04T11:28:33.400Z,30.57
2023-03-04T11:31:11.469Z,28.40
2023-03-04T11:33:56.090Z,25.80
2023-03-04T11:36:30.313Z,35.83
2023-03-04T11:38:57.681Z,30.90
2023-03-04T11:41:38.322Z,32.90
2023-03-04T11:44:13.121Z,26.67
2023-03-04T11:47:01.833Z,27.67
2023-03-04T11:49:47.655Z,30.00
2023-03-04T11:52:36.407Z,23.17
2023-03-04T11:55:08.949Z,25.40
2023-03-04T11:58:06.626Z,26.50
2023-03-04T12:00:52.971Z,28.17
2023-03-04T12:03:56.608Z,24.87
2023-03-04T12:06:28.769Z,27.03
2023-03-04T12:09:17.859Z,25.77
2023-03-04T12:12:24.193Z,31.77
2023-03-04T12:15:21.952Z,22.20
2023-03-04T12:18:11.620Z,22.33
2023-03-04T12:20:57.309Z,20.97
2023-03-04T12:24:10.461Z,22.80
2023-03-04T12:27:04.167Z,19.30
2023-03-04T12:29:56.254Z,20.20
2023-03-04T12:32:45.128Z,22.30
2023-03-04T12:35:23.581Z,18.37
2023-03-04T12:37:56.697Z,18.90
2023-03-04T12:40:36.253Z,25.23
2023-03-04T12:43:43.229Z,18.43
2023-03-04T12:46:25.258Z,16.87
2023-03-04T12:49:10.412Z,20.70
2023-03-04T12:52:05.085Z,24.77
2023-03-04T12:54:41.697Z,18.37
2023-03-04T12:57:14.038Z,16.90
2023-03-04T12:59:51.038Z,17.57
2023-03-04T13:02:42.435Z,18.77
2023-03-04T13:05:24.000Z,18.13
2023-03-04T13:08:09.579Z,20.13
2023-03-04T13:10:36.498Z,26.53
2023-03-04T13:13:03.818Z,17.77
2023-03-04T13:15:37.516Z,20.37
2023-03-04T13:18:31.836Z,21.00
2023-03-04T13:21:17.798Z,21.20
2023-03-04T13:23:44.453Z,24.77
2023-03-04T13:26:23.247Z,22.63
2023-03-04T13:29:17.906Z,18.00
2023-03-04T13:32:10.751Z,22.37
2023-03-04T13:34:59.271Z,20.87
2023-03-04T13:37:25.863Z,20.70
2023-03-04T13:40:23.536Z,17.23
2023-03-04T13:42:50.769Z,19.13
2023-03-04T13:45:36.330Z,18.27
2023-03-04T13:48:23.507Z,16.70
2023-03-04T13:50:51.552Z,20.00
2023-03-04T13:53:29.911Z,22.70
2023-03-04T13:56:09.375Z,21.50
2023-03-04T13:58:37.879Z,21.20
2023-03-04T14:01:32.077Z,22.70
2023-03-04T14:04:10.552Z,21.83
2023-03-04T14:06:47.375Z,21.63
2023-03-04T14:09:20.590Z,17.97
2023-03-04T14:11:55.005Z,18.07
2023-03-04T14:14:28.189Z,22.40
2023-03-04T14:17:01.549Z,18.70
2023-03-04T14:19:43.126Z,19.00
2023-03-04T14:22:33.025Z,21.57
2023-03-04T14:25:23.146Z,18.47
2023-03-04T14:28:14.534Z,17.40
2023-03-04T14:30:54.658Z,18.80
2023-03-04T14:33:25.075Z,20.70
2023-03-04T14:35:57.001Z,16.30
2023-03-04T14:38:33.727Z,19.27
2023-03-04T14:41:10.567Z,19.23
2023-03-04T14:43:54.098Z,15.80
2023-03-04T14:46:22.457Z,17.50
2023-03-04T14:48:56.503Z,15.77
2023-03-04T14:51:38.418Z,15.77
2023-03-04T14:54:25.026Z,17.67
2023-03-04T14:56:51.753Z,18.23
2023-03-04T14:59:37.388Z,18.17
2023-03-04T15:02:33.682Z,15.17
2023-03-04T15:05:16.471Z,17.27
2023-03-04T15:07:53.688Z,17.87
2023-03-04T15:10:34.631Z,17.40
2023-03-04T15:13:07.625Z,16.70
2023-03-04T15:15:49.733Z,16.93
2023-03-04T15:18:16.304Z,21.43
2023-03-04T15:20:55.465Z,18.30
2023-03-04T15:23:24.424Z,15.93
2023-03-04T15:25:53.854Z,16.40
2023-03-04T15:28:26.865Z,19.00
2023-03-04T15:30:56.057Z,19.83
2023-03-04T15:33:22.718Z,19.63
2023-03-04T15:35:55.293Z,19.93
2023-03-04T15:38:30.782Z,15.57
2023-03-04T15:41:00.550Z,15.77
2023-03-04T15:43:29.577Z,17.47
2023-03-04T15:45:56.358Z,17.83
2023-03-04T15:48:25.529Z,16.80
2023-03-04T15:50:56.019Z,16.70
2023-03-04T15:53:22.675Z,18.60
2023-03-04T15:55:54.503Z,14.77
2023-03-04T15:58:25.728Z,18.90
2023-03-04T16:00:54.837Z,17.90
2023-03-04T16:03:26.585Z,14.23
2023-03-04T16:06:00.371Z,16.90
2023-03-04T16:08:29.277Z,15.43
2023-03-04T16:11:01.266Z,14.00
2023-03-04T16:13:30.277Z,16.10
2023-03-04T16:15:59.884Z,15.70
2023-03-04T16:18:26.575Z,21.50
2023-03-04T16:20:55.460Z,16.37
2023-03-04T16:23:25.172Z,15.37
2023-03-04T16:25:55.893Z,18.03
2023-03-04T16:28:25.399Z,17.83
2023-03-04T16:30:54.412Z,13.47
2023-03-04T16:33:23.604Z,12.63
2023-03-04T16:35:53.057Z,13.37
2023-03-04T16:38:27.093Z,26.83
2023-03-04T16:40:55.711Z,18.93
2023-03-04T16:43:28.682Z,27.27
2023-03-04T16:45:55.470Z,15.30
2023-03-04T16:48:24.569Z,14.97
2023-03-04T16:50:53.497Z,17.97
2023-03-04T16:53:35.706Z,15.93
2023-03-04T16:56:17.457Z,14.93
2023-03-04T16:58:50.337Z,16.20
2023-03-04T17:01:30.772Z,16.47
2023-03-04T17:03:58.162Z,14.30
2023-03-04T17:06:28.262Z,18.43
2023-03-04T17:08:57.891Z,15.37
2023-03-04T17:11:24.507Z,16.87
2023-03-04T17:13:51.769Z,14.60
2023-03-04T17:16:21.139Z,14.43
2023-03-04T17:18:52.545Z,13.23
2023-03-04T17:21:25.938Z,15.77
2023-03-04T17:23:55.114Z,19.37
2023-03-04T17:26:22.685Z,17.80
2023-03-04T17:28:52.252Z,19.50
2023-03-04T17:31:20.250Z,13.70
2023-03-04T17:33:49.894Z,18.60
2023-03-04T17:36:20.041Z,19.17
2023-03-04T17:38:47.213Z,18.43
2023-03-04T17:41:18.744Z,15.60
2023-03-04T17:43:50.430Z,17.40
2023-03-04T17:46:20.522Z,16.17
2023-03-04T17:48:52.994Z,17.00
2023-03-04T17:51:33.028Z,15.87
2023-03-04T17:54:01.348Z,15.23
2023-03-04T17:56:34.263Z,13.07
2023-03-04T17:59:06.709Z,18.07
2023-03-04T18:01:38.193Z,17.83
2023-03-04T18:04:05.347Z,12.43
2023-03-04T18:06:36.966Z,13.27
2023-03-04T18:09:04.300Z,15.00
2023-03-04T18:11:36.485Z,15.17
2023-03-04T18:14:03.897Z,16.10
2023-03-04T18:16:30.930Z,21.30
2023-03-04T18:18:59.894Z,15.30
2023-03-04T18:21:28.303Z,16.30
2023-03-04T18:24:02.569Z,14.23
2023-03-04T18:26:29.333Z,15.43
2023-03-04T18:29:00.583Z,14.07
2023-03-04T18:31:32.160Z,16.93
2023-03-04T18:34:02.053Z,15.27
2023-03-04T18:36:29.659Z,20.67
2023-03-04T18:39:02.391Z,15.57
2023-03-04T18:41:31.451Z,16.90
2023-03-04T18:43:58.093Z,16.70
2023-03-04T18:46:40.190Z,14.80
2023-03-04T18:49:12.795Z,14.80
2023-03-04T18:51:42.194Z,12.70
2023-03-04T18:54:09.075Z,22.93
2023-03-04T18:56:44.845Z,16.27
2023-03-04T18:59:17.423Z,14.87
2023-03-04T19:01:47.626Z,18.43
2023-03-04T19:04:20.178Z,13.63
2023-03-04T19:06:49.531Z,16.37
2023-03-04T19:09:23.186Z,14.53
2023-03-04T19:11:55.388Z,13.93
2023-03-04T19:14:26.874Z,16.23
2023-03-04T19:16:53.800Z,16.47
2023-03-04T19:19:23.340Z,14.80
2023-03-04T19:21:52.138Z,16.13
2023-03-04T19:24:23.675Z,15.00
2023-03-04T19:26:55.325Z,12.47
2023-03-04T19:29:25.207Z,13.90
2023-03-04T19:31:56.952Z,12.90
2023-03-04T19:34:25.941Z,14.17
2023-03-04T19:36:55.004Z,13.47
2023-03-04T19:39:26.792Z,12.93
2023-03-04T19:41:55.668Z,16.53
2023-03-04T19:44:22.472Z,13.53
2023-03-04T19:46:49.121Z,13.90
2023-03-04T19:49:23.807Z,21.02
2023-03-04T19:51:50.480Z,16.10
2023-03-04T19:54:19.902Z,14.50
2023-03-04T19:56:48.769Z,12.53
2023-03-04T19:59:18.027Z,12.10
2023-03-04T20:01:47.724Z,15.47
2023-03-04T20:04:16.770Z,15.10
2023-03-04T20:06:45.849Z,14.80
2023-03-04T20:09:18.879Z,16.67
2023-03-04T20:11:57.843Z,15.23
2023-03-04T20:14:30.728Z,13.40
2023-03-04T20:17:02.490Z,17.17
2023-03-04T20:19:33.330Z,19.47
2023-03-04T20:22:02.903Z,16.93
2023-03-04T20:24:29.586Z,22.00
2023-03-04T20:26:58.514Z,18.67
2023-03-04T20:29:28.984Z,18.60
2023-03-04T20:31:55.652Z,16.73
2023-03-04T20:34:26.812Z,16.00
2023-03-04T20:36:57.937Z,16.37
2023-03-04T20:39:30.446Z,19.97
2023-03-04T20:41:58.852Z,18.50
2023-03-04T20:44:25.881Z,19.50
2023-03-04T20:46:53.000Z,23.27
2023-03-04T20:49:24.142Z,18.40
2023-03-04T20:51:55.941Z,18.10
2023-03-04T20:54:25.245Z,20.47
2023-03-04T20:56:51.907Z,21.87
2023-03-04T20:59:18.574Z,18.63
2023-03-04T21:01:52.092Z,20.50
2023-03-04T21:04:21.437Z,26.13
2023-03-04T21:06:51.810Z,24.00
2023-03-04T21:09:20.892Z,17.63
2023-03-04T21:11:52.985Z,18.53
2023-03-04T21:14:28.062Z,18.90
2023-03-04T21:17:04.702Z,17.93
2023-03-04T21:19:37.736Z,17.10
2023-03-04T21:22:06.931Z,23.10
2023-03-04T21:24:39.904Z,22.03
2023-03-04T21:27:08.191Z,31.03
2023-03-04T21:29:39.420Z,22.73
2023-03-04T21:32:25.235Z,21.43
2023-03-04T21:34:54.031Z,23.97
2023-03-04T21:37:24.080Z,27.93
2023-03-04T21:39:51.090Z,23.47
2023-03-04T21:42:20.963Z,24.43
2023-03-04T21:44:50.679Z,20.97
2023-03-04T21:47:21.500Z,24.13
2023-03-04T21:49:48.305Z,29.67
2023-03-04T21:52:15.158Z,27.50
2023-03-04T21:54:46.711Z,26.80
2023-03-04T21:57:19.226Z,29.70
2023-03-04T21:59:46.014Z,24.97
2023-03-04T22:02:21.589Z,22.30
2023-03-04T22:04:48.607Z,27.33
2023-03-04T22:07:18.420Z,20.60
2023-03-04T22:09:49.599Z,29.27
2023-03-04T22:12:19.726Z,25.07
2023-03-04T22:14:46.679Z,22.27
2023-03-04T22:17:22.973Z,20.20
2023-03-04T22:19:49.736Z,20.33
2023-03-04T22:22:21.398Z,21.03
2023-03-04T22:24:48.070Z,19.40
2023-03-04T22:27:20.200Z,20.33
2023-03-04T22:29:46.951Z,26.80
2023-03-04T22:32:15.467Z,26.77
2023-03-04T22:34:46.873Z,21.13
2023-03-04T22:37:18.275Z,21.63
2023-03-04T22:39:49.794Z,18.57
2023-03-04T22:42:16.443Z,20.27
2023-03-04T22:44:43.115Z,25.70
2023-03-04T22:47:09.717Z,23.67
2023-03-04T22:49:37.761Z,29.40
2023-03-04T22:52:04.435Z,29.57
2023-03-04T22:54:33.478Z,24.20
2023-03-04T22:57:00.080Z,25.10
2023-03-04T22:59:29.147Z,24.50
2023-03-04T23:01:58.893Z,30.27
2023-03-04T23:04:27.952Z,27.23
2023-03-04T23:06:56.559Z,24.90
2023-03-04T23:09:28.024Z,30.47
2023-03-04T23:11:54.639Z,27.70
2023-03-04T23:14:21.377Z,32.43
2023-03-04T23:16:52.461Z,27.53
2023-03-04T23:19:19.391Z,29.37
2023-03-04T23:21:48.722Z,28.37
2023-03-04T23:24:15.377Z,22.97
2023-03-04T23:26:45.291Z,31.53
2023-03-04T23:29:16.273Z,29.73
2023-03-04T23:31:47.482Z,29.23
2023-03-04T23:34:14.118Z,29.30
2023-03-04T23:36:46.071Z,33.20
2023-03-04T23:39:15.018Z,31.07
2023-03-04T23:41:46.589Z,29.50
2023-03-04T23:44:15.931Z,38.93
2023-03-04T23:46:44.585Z,33.30
2023-03-04T23:49:21.043Z,30.63
2023-03-04T23:51:50.072Z,33.97
2023-03-04T23:54:19.215Z,29.97
2023-03-04T23:56:48.259Z,23.03
2023-03-04T23:59:17.336Z,29.23
